Time;durP1;ratioP1;P1;durP2;ratioP2;P2;SDS_P1;SDS_P2;PMS_P1;PMS_P2;Temp;Humidity;BMP_temperature;BMP_pressure;BME280_temperature;BME280_humidity;BME280_pressure;Samples;Min_cycle;Max_cycle;Signal;HPM_P1;HPM_P2
2022/02/19 00:00:57;;;;;;;10.25;2.45;;;;;;;6.57;69.66;98447.97;5010173;28;20130;-84
2022/02/19 00:03:24;;;;;;;13.25;1.73;;;;;;;6.60;70.80;98474.63;5008678;28;20129;-84
2022/02/19 00:05:51;;;;;;;10.13;1.63;;;;;;;6.62;69.71;98476.13;5010252;28;20056;-84
2022/02/19 00:08:17;;;;;;;4.30;0.98;;;;;;;6.47;69.10;98476.00;5009890;28;20510;-84
2022/02/19 00:10:46;;;;;;;11.52;1.33;;;;;;;6.58;66.87;98477.50;5011150;28;20045;-84
2022/02/19 00:13:12;;;;;;;8.18;1.25;;;;;;;6.42;68.38;98461.38;5009439;28;20104;-84
2022/02/19 00:15:39;;;;;;;14.05;1.20;;;;;;;6.58;65.51;98488.31;5008415;28;20056;-84
2022/02/19 00:18:06;;;;;;;5.30;1.85;;;;;;;6.60;65.20;98493.53;5010418;28;20057;-85
2022/02/19 00:20:32;;;;;;;5.03;1.52;;;;;;;6.54;66.60;98486.97;5010719;28;20140;-83
2022/02/19 00:22:59;;;;;;;11.10;1.92;;;;;;;6.38;67.25;98477.94;5009199;28;20046;-84
2022/02/19 00:25:26;;;;;;;10.30;1.83;;;;;;;6.41;67.46;98500.19;5009662;28;20495;-84
2022/02/19 00:27:54;;;;;;;5.60;2.05;;;;;;;6.26;68.04;98489.28;5009684;28;20577;-83
2022/02/19 00:30:21;;;;;;;14.25;1.52;;;;;;;6.36;67.85;98508.81;5011960;28;20056;-84
2022/02/19 00:32:48;;;;;;;5.82;1.48;;;;;;;6.23;68.68;98503.94;5013690;28;20277;-84
2022/02/19 00:35:15;;;;;;;9.45;2.15;;;;;;;6.32;68.10;98519.13;5006738;28;20499;-84
2022/02/19 00:37:42;;;;;;;9.32;1.90;;;;;;;6.33;67.83;98514.56;5012043;28;20042;-84
2022/02/19 00:40:10;;;;;;;6.47;1.63;;;;;;;6.29;69.06;98524.88;5013988;28;20140;-85
2022/02/19 00:42:36;;;;;;;9.00;1.77;;;;;;;6.36;68.02;98514.22;5013840;28;20473;-84
2022/02/19 00:45:05;;;;;;;9.85;1.65;;;;;;;6.27;67.17;98502.59;5017250;28;20047;-84
2022/02/19 00:47:32;;;;;;;14.05;2.00;;;;;;;6.36;67.75;98536.63;5009186;28;20124;-84
2022/02/19 00:49:59;;;;;;;6.43;1.67;;;;;;;6.26;68.91;98540.56;5013571;28;20104;-84
2022/02/19 00:52:27;;;;;;;8.63;2.13;;;;;;;6.30;68.66;98553.53;5013244;28;20112;-85
2022/02/19 00:54:54;;;;;;;9.93;1.40;;;;;;;6.29;68.04;98543.78;5013485;28;20065;-84
2022/02/19 00:57:23;;;;;;;4.93;0.95;;;;;;;6.24;67.79;98548.81;5007245;28;20073;-85
2022/02/19 00:59:49;;;;;;;15.20;2.05;;;;;;;6.32;68.20;98558.75;5015176;28;20045;-84
2022/02/19 01:02:17;;;;;;;7.18;1.20;;;;;;;6.28;69.14;98577.16;5013077;28;20081;-83
2022/02/19 01:04:44;;;;;;;9.20;1.90;;;;;;;6.25;68.58;98566.72;5013209;28;20046;-84
2022/02/19 01:07:10;;;;;;;10.65;1.48;;;;;;;6.27;69.63;98559.28;5013801;28;20048;-84
2022/02/19 01:09:37;;;;;;;10.68;1.95;;;;;;;6.22;68.28;98550.88;5013347;28;20493;-84
2022/02/19 01:12:04;;;;;;;10.60;1.50;;;;;;;6.13;68.90;98560.84;5013269;28;20505;-84
2022/02/19 01:14:31;;;;;;;8.40;1.73;;;;;;;6.13;68.92;98562.69;5012284;28;20049;-84
2022/02/19 01:16:58;;;;;;;9.95;1.52;;;;;;;6.23;67.73;98574.13;5005959;28;20584;-84
2022/02/19 01:19:26;;;;;;;6.05;1.42;;;;;;;6.14;68.28;98570.63;5012787;28;20476;-84
2022/02/19 01:21:53;;;;;;;4.68;1.17;;;;;;;6.14;67.96;98556.28;5013243;28;20041;-85
2022/02/19 01:24:22;;;;;;;4.10;1.20;;;;;;;6.22;66.34;98571.59;5011569;28;20058;-84
2022/02/19 01:26:48;;;;;;;12.27;1.60;;;;;;;6.25;65.60;98596.41;5012618;28;20046;-84
2022/02/19 01:29:15;;;;;;;10.55;1.63;;;;;;;6.18;66.22;98588.13;5009452;28;20416;-84
2022/02/19 01:31:42;;;;;;;15.05;2.22;;;;;;;6.11;65.59;98576.38;5013404;28;20052;-84
2022/02/19 01:34:08;;;;;;;6.22;1.48;;;;;;;6.08;65.15;98579.41;5012311;28;20045;-84
2022/02/19 01:36:37;;;;;;;9.57;1.77;;;;;;;6.14;63.62;98589.50;5011286;28;20152;-84
2022/02/19 01:39:04;;;;;;;6.72;1.00;;;;;;;6.14;66.87;98599.44;5013094;28;20061;-84
2022/02/19 01:41:31;;;;;;;8.35;1.38;;;;;;;6.09;65.88;98613.47;5013153;28;20050;-84
2022/02/19 01:44:03;;;;;;;6.97;1.45;;;;;;;6.02;64.22;98607.03;5012227;28;20053;-84
2022/02/19 01:46:30;;;;;;;5.25;1.45;;;;;;;6.02;63.68;98604.34;5012704;28;20473;-83
2022/02/19 01:48:56;;;;;;;4.65;1.15;;;;;;;6.10;61.54;98608.91;5010380;28;20450;-84
2022/02/19 01:51:23;;;;;;;11.85;1.83;;;;;;;6.00;63.22;98598.28;5001326;28;20085;-83
2022/02/19 01:53:52;;;;;;;9.40;1.60;;;;;;;6.00;62.51;98622.56;5010707;28;20486;-84
2022/02/19 01:56:19;;;;;;;5.85;1.15;;;;;;;6.10;59.86;98625.13;5012923;28;20085;-82
2022/02/19 01:58:46;;;;;;;5.07;1.38;;;;;;;5.93;60.66;98605.34;5008564;28;20064;-83
2022/02/19 02:01:13;;;;;;;4.97;1.23;;;;;;;5.93;61.94;98618.81;5010971;28;20092;-82
2022/02/19 02:03:39;;;;;;;9.73;1.60;;;;;;;5.91;61.44;98634.34;5006310;28;20089;-83
2022/02/19 02:06:06;;;;;;;10.95;1.50;;;;;;;5.84;61.90;98636.84;5010301;28;20136;-82
2022/02/19 02:08:37;;;;;;;8.88;1.83;;;;;;;5.89;61.33;98634.50;5014944;28;20056;-83
2022/02/19 02:11:06;;;;;;;11.02;1.52;;;;;;;5.75;61.72;98621.69;5011096;28;20066;-83
2022/02/19 02:13:33;;;;;;;6.85;1.38;;;;;;;5.77;62.31;98646.66;5012051;28;20095;-83
2022/02/19 02:15:59;;;;;;;7.32;1.08;;;;;;;5.84;60.95;98651.22;5004762;28;20046;-82
2022/02/19 02:18:26;;;;;;;2.05;0.95;;;;;;;5.79;61.03;98639.22;5011996;28;20539;-83
2022/02/19 02:20:53;;;;;;;7.57;1.33;;;;;;;5.77;61.26;98642.09;5011895;28;20052;-82
2022/02/19 02:23:21;;;;;;;5.30;1.40;;;;;;;5.67;61.54;98634.16;5009925;28;20056;-80
2022/02/19 02:25:48;;;;;;;12.63;1.83;;;;;;;5.74;63.11;98655.91;5012150;28;20452;-81
2022/02/19 02:28:15;;;;;;;10.15;1.50;;;;;;;5.61;62.58;98653.69;5011487;28;20137;-82
2022/02/19 02:30:42;;;;;;;5.53;1.35;;;;;;;5.61;62.25;98658.25;5015904;28;20092;-82
2022/02/19 02:33:11;;;;;;;8.52;1.92;;;;;;;5.54;62.87;98657.22;5011463;28;20075;-82
2022/02/19 02:35:38;;;;;;;9.70;1.27;;;;;;;5.53;63.30;98671.72;5010120;28;20056;-83
2022/02/19 02:38:05;;;;;;;4.50;1.30;;;;;;;5.55;63.00;98672.38;5011782;28;20054;-82
2022/02/19 02:40:34;;;;;;;10.13;1.55;;;;;;;5.49;63.57;98676.56;5011628;28;20424;-82
2022/02/19 02:43:01;;;;;;;9.10;1.27;;;;;;;5.36;63.98;98662.72;5011437;28;20129;-82
2022/02/19 02:45:28;;;;;;;6.57;1.13;;;;;;;5.46;64.23;98685.00;5009687;28;20125;-83
2022/02/19 02:47:55;;;;;;;6.95;1.25;;;;;;;5.38;64.55;98679.59;5005487;28;20171;-83
2022/02/19 02:50:22;;;;;;;10.98;1.50;;;;;;;5.32;65.03;98690.00;5017569;28;20072;-83
2022/02/19 02:52:48;;;;;;;9.43;1.58;;;;;;;5.35;64.00;98688.00;5011659;28;20133;-82
2022/02/19 02:55:15;;;;;;;5.25;1.60;;;;;;;5.23;64.52;98680.19;5010235;28;20146;-82
2022/02/19 02:57:44;;;;;;;7.95;1.35;;;;;;;5.28;64.37;98694.06;5011874;28;20501;-82
2022/02/19 03:00:13;;;;;;;9.50;1.92;;;;;;;5.26;65.43;98708.69;5007944;28;20045;-83
2022/02/19 03:02:40;;;;;;;10.87;1.50;;;;;;;5.10;65.49;98687.91;5011123;28;20484;-83
2022/02/19 03:05:08;;;;;;;12.73;1.38;;;;;;;5.16;65.12;98702.56;5012441;28;20045;-82
2022/02/19 03:07:35;;;;;;;9.45;1.85;;;;;;;5.23;64.33;98715.25;5010121;28;20497;-82
2022/02/19 03:10:05;;;;;;;12.02;2.20;;;;;;;5.09;65.61;98700.53;5010028;28;20061;-84
2022/02/19 03:12:32;;;;;;;10.18;1.40;;;;;;;5.14;64.83;98721.59;5010908;28;20128;-83
2022/02/19 03:15:00;;;;;;;11.73;2.03;;;;;;;5.10;65.44;98734.56;5010391;28;20136;-83
2022/02/19 03:17:27;;;;;;;6.72;1.67;;;;;;;5.08;65.21;98731.16;5010979;28;20435;-83
2022/02/19 03:19:53;;;;;;;7.90;1.45;;;;;;;4.97;65.42;98726.91;5011188;28;20253;-83
2022/02/19 03:22:20;;;;;;;5.43;1.27;;;;;;;5.05;65.36;98727.97;5011517;28;20391;-82
2022/02/19 03:24:47;;;;;;;6.10;1.63;;;;;;;4.96;65.18;98727.91;5008887;28;20046;-82
2022/02/19 03:27:13;;;;;;;8.52;1.98;;;;;;;4.88;65.91;98735.94;5011240;28;20052;-84
2022/02/19 03:29:40;;;;;;;10.00;2.15;;;;;;;4.95;66.85;98763.94;5011100;28;20077;-82
2022/02/19 03:32:09;;;;;;;2.33;0.90;;;;;;;4.83;66.87;98764.34;5010407;28;20056;-82
2022/02/19 03:34:35;;;;;;;12.33;1.60;;;;;;;4.86;66.81;98766.72;5009485;28;20136;-82
2022/02/19 03:37:02;;;;;;;8.93;2.13;;;;;;;4.83;67.86;98786.72;5009393;28;20304;-82
2022/02/19 03:39:29;;;;;;;10.77;1.10;;;;;;;4.74;67.00;98760.75;5006073;28;20410;-82
2022/02/19 03:41:55;;;;;;;6.70;1.13;;;;;;;4.77;66.78;98768.50;5009162;28;20421;-83
2022/02/19 03:44:22;;;;;;;8.45;1.10;;;;;;;4.74;67.40;98776.91;5010194;28;20052;-82
2022/02/19 03:46:48;;;;;;;7.07;1.38;;;;;;;4.70;68.11;98795.25;5010482;28;20041;-82
2022/02/19 03:49:16;;;;;;;5.35;1.38;;;;;;;4.58;68.15;98788.41;4995860;28;20053;-82
2022/02/19 03:51:43;;;;;;;14.15;2.22;;;;;;;4.60;69.39;98811.47;5009910;28;20092;-82
2022/02/19 03:54:10;;;;;;;6.93;1.23;;;;;;;4.57;68.72;98813.63;5009367;28;20053;-83
2022/02/19 03:56:37;;;;;;;9.05;1.83;;;;;;;4.54;67.83;98827.41;5010415;28;20050;-82
2022/02/19 03:59:03;;;;;;;7.70;1.52;;;;;;;4.52;68.51;98813.28;5010336;28;20137;-82
2022/02/19 04:01:30;;;;;;;6.85;1.25;;;;;;;4.51;69.19;98817.78;5009783;28;20042;-82
2022/02/19 04:03:58;;;;;;;9.07;1.50;;;;;;;4.51;69.05;98831.25;5009227;28;20060;-83
2022/02/19 04:06:26;;;;;;;5.30;1.63;;;;;;;4.52;69.56;98848.28;5011615;28;20133;-82
2022/02/19 04:08:52;;;;;;;3.85;1.30;;;;;;;4.46;69.81;98846.16;5014786;28;20518;-82
2022/02/19 04:11:19;;;;;;;3.35;1.30;;;;;;;4.48;69.54;98855.78;5014769;28;20486;-82
2022/02/19 04:13:46;;;;;;;12.40;2.08;;;;;;;4.44;69.99;98859.78;5013653;28;20056;-83
2022/02/19 04:16:12;;;;;;;8.43;1.55;;;;;;;4.35;70.28;98847.25;5014014;28;20069;-83
2022/02/19 04:18:39;;;;;;;10.80;2.47;;;;;;;4.34;70.50;98853.63;5014302;28;20064;-82
2022/02/19 04:21:07;;;;;;;15.20;2.05;;;;;;;4.35;71.30;98866.06;5013343;28;20137;-84
2022/02/19 04:23:35;;;;;;;6.43;1.50;;;;;;;4.32;71.05;98861.88;5012458;28;20041;-83
2022/02/19 04:26:02;;;;;;;9.40;1.98;;;;;;;4.28;71.39;98870.41;5014595;28;20050;-83
2022/02/19 04:28:28;;;;;;;5.80;1.23;;;;;;;4.29;70.22;98872.06;5009115;28;20145;-82
2022/02/19 04:30:55;;;;;;;10.55;1.38;;;;;;;4.22;70.66;98859.22;5013979;28;20120;-82
2022/02/19 04:33:22;;;;;;;7.10;2.13;;;;;;;4.32;70.53;98885.22;5013095;28;20054;-82
2022/02/19 04:35:49;;;;;;;10.30;1.48;;;;;;;4.20;71.89;98884.59;5013872;28;20448;-83
2022/02/19 04:38:17;;;;;;;7.88;1.27;;;;;;;4.12;72.12;98879.97;5013976;28;20054;-82
2022/02/19 04:40:45;;;;;;;4.95;0.88;;;;;;;4.18;71.69;98894.66;5012606;28;20533;-82
2022/02/19 04:43:12;;;;;;;8.15;1.40;;;;;;;4.17;71.87;98901.03;5008119;28;20687;-82
2022/02/19 04:45:38;;;;;;;8.60;1.83;;;;;;;4.10;71.99;98890.03;5014337;28;20057;-82
2022/02/19 04:48:06;;;;;;;9.10;2.00;;;;;;;4.08;71.86;98897.44;5013484;28;20060;-83
2022/02/19 04:50:32;;;;;;;5.70;1.40;;;;;;;4.05;72.78;98917.41;5013771;28;20133;-82
2022/02/19 04:52:59;;;;;;;7.82;1.38;;;;;;;4.08;71.69;98910.88;5007113;28;20398;-83
2022/02/19 04:55:26;;;;;;;9.27;1.08;;;;;;;4.08;72.13;98919.78;5011386;28;20058;-83
2022/02/19 04:57:54;;;;;;;15.60;1.60;;;;;;;4.02;72.70;98916.81;5014226;28;20125;-83
2022/02/19 05:00:21;;;;;;;5.97;1.60;;;;;;;3.94;72.87;98908.66;5011853;28;20512;-83
2022/02/19 05:02:48;;;;;;;8.10;1.55;;;;;;;4.02;71.77;98924.91;5011582;28;20064;-83
2022/02/19 05:05:14;;;;;;;9.30;1.38;;;;;;;3.97;72.46;98933.41;5013308;28;20058;-83
2022/02/19 05:07:42;;;;;;;14.48;1.38;;;;;;;3.86;72.36;98915.63;5013249;28;20111;-83
2022/02/19 05:10:09;;;;;;;11.10;1.77;;;;;;;3.92;73.56;98934.88;5005591;28;20050;-83
2022/02/19 05:12:41;;;;;;;5.75;1.38;;;;;;;3.77;72.97;98910.31;5005177;28;20057;-83
2022/02/19 05:15:11;;;;;;;12.20;1.63;;;;;;;3.85;73.50;98940.84;5012602;28;20054;-83
2022/02/19 05:17:45;;;;;;;6.97;1.20;;;;;;;3.83;72.86;98939.28;5012290;28;20425;-83
2022/02/19 05:20:12;;;;;;;11.43;1.65;;;;;;;3.70;73.48;98931.53;5010112;28;20046;-83
2022/02/19 05:22:39;;;;;;;6.35;1.40;;;;;;;3.80;73.18;98943.13;5012405;28;20156;-83
2022/02/19 05:25:06;;;;;;;11.02;2.35;;;;;;;3.76;74.10;98948.94;5012145;28;20076;-83
2022/02/19 05:27:33;;;;;;;6.97;1.42;;;;;;;3.71;75.03;98944.84;5012787;28;20050;-83
2022/02/19 05:30:00;;;;;;;12.50;1.75;;;;;;;3.58;74.87;98940.78;5012890;28;20057;-83
2022/02/19 05:32:28;;;;;;;12.13;2.80;;;;;;;3.62;75.27;98955.63;5012828;28;20054;-82
2022/02/19 05:34:54;;;;;;;8.75;2.15;;;;;;;3.63;74.03;98955.50;5004054;28;20054;-82
2022/02/19 05:37:21;;;;;;;39.53;2.40;;;;;;;3.64;74.44;98970.59;5015067;28;20048;-83
2022/02/19 05:39:48;;;;;;;6.97;1.80;;;;;;;3.63;74.79;98977.00;5010383;28;20069;-82
2022/02/19 05:42:14;;;;;;;4.35;1.48;;;;;;;3.60;75.01;98984.47;5012946;28;20058;-82
2022/02/19 05:44:41;;;;;;;8.32;2.20;;;;;;;3.58;75.41;98994.53;5011997;28;20054;-83
2022/02/19 05:47:08;;;;;;;13.63;1.73;;;;;;;3.62;75.78;99004.03;5012072;28;20054;-79
2022/02/19 05:49:36;;;;;;;16.88;1.58;;;;;;;3.60;75.19;99006.84;5012144;28;20136;-79
2022/02/19 05:52:03;;;;;;;10.23;1.52;;;;;;;3.48;75.86;99006.16;5008243;28;20061;-80
2022/02/19 05:54:29;;;;;;;7.50;1.33;;;;;;;3.50;76.48;99009.53;5010909;28;20297;-82
2022/02/19 05:56:56;;;;;;;6.53;2.13;;;;;;;3.46;76.81;99020.72;5012382;28;20399;-82
2022/02/19 05:59:23;;;;;;;13.93;2.30;;;;;;;3.47;76.54;99011.69;5008342;28;20700;-83
2022/02/19 06:01:49;;;;;;;9.02;1.48;;;;;;;3.56;75.56;99026.09;5008630;28;20050;-82
2022/02/19 06:04:16;;;;;;;10.02;2.55;;;;;;;3.57;75.57;99025.97;5012115;28;20054;-84
2022/02/19 06:06:44;;;;;;;8.70;2.08;;;;;;;3.57;77.00;99036.72;5012075;28;20042;-82
2022/02/19 06:09:11;;;;;;;9.27;1.65;;;;;;;3.49;76.53;99037.44;5012298;28;20073;-82
2022/02/19 06:11:40;;;;;;;9.32;1.92;;;;;;;3.46;76.43;99032.34;5004876;28;20049;-83
2022/02/19 06:14:15;;;;;;;12.48;1.73;;;;;;;3.35;76.83;99037.84;5010423;28;20061;-83
2022/02/19 06:16:42;;;;;;;8.35;1.52;;;;;;;3.41;77.34;99047.19;5012222;28;20134;-83
2022/02/19 06:19:09;;;;;;;13.80;1.98;;;;;;;3.42;76.70;99052.41;5012622;28;20073;-83
2022/02/19 06:21:35;;;;;;;6.30;1.23;;;;;;;3.45;76.51;99057.50;5011601;28;20069;-82
2022/02/19 06:24:16;;;;;;;10.75;2.03;;;;;;;3.45;77.27;99068.25;5010846;28;20149;-83
2022/02/19 06:26:43;;;;;;;10.05;2.03;;;;;;;3.46;76.65;99077.16;5011142;28;20428;-83
2022/02/19 06:29:09;;;;;;;15.10;2.15;;;;;;;3.48;76.69;99076.03;5010058;28;20132;-82
2022/02/19 06:31:36;;;;;;;8.55;1.38;;;;;;;3.48;76.51;99061.75;5011928;28;20551;-82
2022/02/19 06:34:03;;;;;;;5.13;1.33;;;;;;;3.46;76.79;99069.09;5008285;28;20081;-82
2022/02/19 06:36:29;;;;;;;5.57;1.20;;;;;;;3.42;76.03;99054.25;5010220;28;20065;-82
2022/02/19 06:38:56;;;;;;;7.35;2.05;;;;;;;3.50;76.37;99075.91;5012305;28;20057;-83
2022/02/19 06:41:24;;;;;;;6.38;1.60;;;;;;;3.39;77.04;99068.84;5006429;28;20077;-83
2022/02/19 06:43:52;;;;;;;13.38;2.42;;;;;;;3.42;76.14;99079.31;5011359;28;20049;-83
2022/02/19 06:46:18;;;;;;;12.18;2.13;;;;;;;3.49;76.44;99099.25;5016446;28;20100;-83
2022/02/19 06:48:45;;;;;;;5.68;1.00;;;;;;;3.51;75.93;99104.50;5011853;28;20132;-84
2022/02/19 06:51:12;;;;;;;8.20;1.45;;;;;;;3.36;75.73;99088.78;5010359;28;20141;-83
2022/02/19 06:53:41;;;;;;;11.52;2.30;;;;;;;3.49;75.83;99117.19;5009645;28;20119;-83
2022/02/19 06:56:08;;;;;;;8.95;1.75;;;;;;;3.39;75.73;99105.59;5001480;28;20050;-82
2022/02/19 06:58:36;;;;;;;13.35;2.25;;;;;;;3.46;75.14;99115.66;5011253;28;20045;-83
2022/02/19 07:01:03;;;;;;;7.57;1.67;;;;;;;3.44;76.05;99124.84;5004061;28;20046;-83
2022/02/19 07:03:30;;;;;;;11.43;1.52;;;;;;;3.44;76.09;99140.97;5000520;28;20042;-82
2022/02/19 07:05:57;;;;;;;9.23;1.67;;;;;;;3.46;76.81;99142.53;5010904;28;20571;-83
2022/02/19 07:08:24;;;;;;;10.20;1.42;;;;;;;3.32;76.41;99134.88;5005252;28;20092;-83
2022/02/19 07:10:53;;;;;;;13.30;2.75;;;;;;;3.29;77.06;99137.84;5008714;28;20113;-83
2022/02/19 07:13:20;;;;;;;13.10;1.70;;;;;;;3.34;78.03;99155.25;4997932;28;20070;-82
2022/02/19 07:15:48;;;;;;;9.15;1.25;;;;;;;3.38;77.40;99161.19;5008909;28;20412;-82
2022/02/19 07:18:16;;;;;;;16.85;4.70;;;;;;;3.28;77.83;99149.56;5028822;28;20058;-82
2022/02/19 07:20:42;;;;;;;4.82;2.00;;;;;;;3.22;77.37;99142.06;5010977;28;20100;-83
2022/02/19 07:23:11;;;;;;;8.45;1.98;;;;;;;3.30;77.04;99155.66;5000763;28;20046;-83
2022/02/19 07:25:37;;;;;;;6.65;1.10;;;;;;;3.39;76.85;99164.72;5010089;28;20060;-83
2022/02/19 07:28:06;;;;;;;7.40;1.40;;;;;;;3.32;77.41;99170.63;5008908;28;20057;-83
2022/02/19 07:30:35;;;;;;;6.95;1.30;;;;;;;3.41;77.96;99189.63;5009291;28;20052;-83
2022/02/19 07:33:04;;;;;;;7.43;1.27;;;;;;;3.36;77.45;99181.97;5005082;28;20046;-82
2022/02/19 07:35:30;;;;;;;10.75;2.13;;;;;;;3.30;77.02;99174.47;5003640;28;20425;-83
2022/02/19 07:37:58;;;;;;;7.20;1.70;;;;;;;3.45;76.74;99199.13;5008877;28;20052;-81
2022/02/19 07:40:25;;;;;;;3.83;1.23;;;;;;;3.35;76.56;99183.81;5010222;28;20064;-82
2022/02/19 07:42:52;;;;;;;7.50;1.42;;;;;;;3.50;77.55;99211.13;5008630;28;20069;-83
2022/02/19 07:45:22;;;;;;;10.80;1.60;;;;;;;3.46;77.39;99207.03;5005435;28;20081;-82
2022/02/19 07:47:49;;;;;;;8.02;1.65;;;;;;;3.40;77.89;99204.03;5014549;28;20037;-82
2022/02/19 07:58:45;;;;;;;6.57;1.30;;;;;;;3.70;76.97;99236.22;5010981;28;20452;-82
2022/02/19 08:01:12;;;;;;;;;;;;;;;3.69;77.55;99236.38;5006378;28;20135;-82
2022/02/19 08:03:39;;;;;;;9.27;1.42;;;;;;;3.71;77.43;99239.75;5010837;28;19928;-82
2022/02/19 08:06:08;;;;;;;7.18;1.35;;;;;;;3.63;76.30;99234.22;5010638;28;20080;-85
2022/02/19 08:08:36;;;;;;;13.68;1.88;;;;;;;3.56;75.72;99227.72;5012972;28;20050;-84
2022/02/19 08:11:02;;;;;;;18.27;2.65;;;;;;;3.61;77.12;99239.72;5010341;28;20046;-84
2022/02/19 08:13:29;;;;;;;8.20;1.80;;;;;;;3.66;77.01;99242.03;5009742;28;20076;-81
2022/02/19 08:15:56;;;;;;;12.68;1.75;;;;;;;3.70;76.70;99235.38;5003683;28;20168;-82
2022/02/19 08:18:23;;;;;;;5.72;1.80;;;;;;;3.87;76.80;99252.69;5009171;28;20428;-83
2022/02/19 08:20:52;;;;;;;7.05;1.48;;;;;;;3.91;75.78;99237.94;5009520;28;20104;-81
2022/02/19 08:23:23;;;;;;;6.93;1.80;;;;;;;4.02;74.64;99243.19;5010141;28;20049;-84
2022/02/19 08:25:49;;;;;;;3.05;1.20;;;;;;;3.96;74.54;99243.75;5008396;28;20052;-82
2022/02/19 08:28:17;;;;;;;11.82;1.92;;;;;;;4.04;75.43;99243.88;5008519;28;20516;-83
2022/02/19 08:30:46;;;;;;;3.30;1.45;;;;;;;4.06;75.40;99233.84;5009220;28;20038;-82
2022/02/19 08:33:14;;;;;;;6.50;1.55;;;;;;;4.08;75.73;99236.41;5011211;28;20104;-78
2022/02/19 08:35:42;;;;;;;13.98;1.48;;;;;;;4.21;75.32;99249.56;5012664;28;20053;-80
2022/02/19 08:38:10;;;;;;;7.35;2.85;;;;;;;4.23;73.81;99252.94;5012136;28;20129;-81
2022/02/19 08:40:38;;;;;;;7.60;1.30;;;;;;;4.15;74.31;99255.50;5003436;28;20096;-80
2022/02/19 08:43:05;;;;;;;8.82;1.23;;;;;;;4.14;73.79;99253.81;5011226;28;20053;-80
2022/02/19 08:45:32;;;;;;;2.92;1.30;;;;;;;4.25;73.09;99264.44;5012417;28;20072;-80
2022/02/19 08:48:04;;;;;;;7.13;1.77;;;;;;;4.17;73.31;99258.91;5009770;28;20133;-80
2022/02/19 08:50:32;;;;;;;8.27;2.15;;;;;;;4.20;73.30;99267.56;5008352;28;20173;-80
2022/02/19 08:52:59;;;;;;;6.95;1.60;;;;;;;4.22;72.48;99262.03;5009895;28;20081;-80
2022/02/19 08:55:27;;;;;;;13.52;2.65;;;;;;;4.32;73.26;99287.09;5009077;28;20052;-81
2022/02/19 08:57:55;;;;;;;4.47;1.52;;;;;;;4.34;72.84;99277.03;5012276;28;20386;-80
2022/02/19 09:00:22;;;;;;;6.35;1.33;;;;;;;4.33;72.55;99287.94;5012888;28;20073;-80
2022/02/19 09:02:49;;;;;;;11.80;2.17;;;;;;;4.37;73.91;99281.28;5009198;28;20061;-80
2022/02/19 09:05:17;;;;;;;5.15;1.48;;;;;;;4.58;73.37;99308.91;5011453;28;20134;-80
2022/02/19 09:07:45;;;;;;;7.00;1.00;;;;;;;4.65;73.72;99300.25;5014352;28;20133;-80
2022/02/19 09:10:14;;;;;;;8.55;1.02;;;;;;;4.63;72.64;99296.88;5013286;28;20050;-81
2022/02/19 09:12:46;;;;;;;9.15;1.52;;;;;;;4.75;73.34;99295.72;5008446;28;20042;-81
2022/02/19 09:15:15;;;;;;;3.53;1.13;;;;;;;4.72;72.18;99296.84;5011121;28;20053;-81
2022/02/19 09:17:42;;;;;;;18.27;1.42;;;;;;;4.58;72.71;99287.38;5000822;28;20050;-81
2022/02/19 09:20:10;;;;;;;12.35;1.67;;;;;;;4.72;73.24;99298.69;5013964;28;20045;-81
2022/02/19 09:22:38;;;;;;;11.43;2.38;;;;;;;4.73;72.48;99303.94;5010798;28;20041;-81
2022/02/19 09:25:23;;;;;;;4.80;1.08;;;;;;;4.72;71.15;99302.22;5010018;28;20164;-81
2022/02/19 09:30:52;;;;;;;4.73;1.10;;;;;;;4.79;71.35;99322.19;5000128;28;20049;-80
2022/02/19 09:33:18;;;;;;;12.13;2.17;;;;;;;4.79;71.81;99311.44;5009720;28;20308;-83
2022/02/19 09:35:45;;;;;;;14.00;2.00;;;;;;;4.81;70.75;99310.44;5010416;28;20135;-82
2022/02/19 09:38:12;;;;;;;9.48;1.70;;;;;;;4.80;69.11;99325.75;5010011;28;20084;-81
2022/02/19 09:40:39;;;;;;;11.40;1.40;;;;;;;4.89;69.75;99329.41;5011122;28;20052;-81
2022/02/19 09:43:05;;;;;;;10.57;1.27;;;;;;;4.73;68.79;99314.69;5009695;28;20050;-81
2022/02/19 09:45:32;;;;;;;5.03;0.98;;;;;;;4.84;69.56;99327.16;5009036;28;20046;-80
2022/02/19 09:48:05;;;;;;;8.50;1.60;;;;;;;4.87;68.85;99329.56;5009973;28;20052;-81
2022/02/19 09:50:33;;;;;;;10.65;1.40;;;;;;;4.84;68.63;99321.78;5010099;28;20073;-81
2022/02/19 09:53:01;;;;;;;5.30;1.40;;;;;;;4.88;68.61;99311.56;5009356;28;20050;-80
2022/02/19 09:55:28;;;;;;;7.70;1.25;;;;;;;4.89;67.59;99315.94;5009521;28;20061;-82
2022/02/19 09:57:55;;;;;;;7.90;1.38;;;;;;;4.86;67.24;99318.94;5009046;28;20050;-80
2022/02/19 10:00:36;;;;;;;8.50;1.83;;;;;;;4.99;68.03;99327.56;5009690;28;20041;-80
2022/02/19 10:03:04;;;;;;;12.75;1.45;;;;;;;5.02;67.79;99310.25;5009284;28;20497;-81
2022/02/19 10:05:33;;;;;;;13.98;1.42;;;;;;;4.99;67.72;99308.69;5009818;28;20061;-80
2022/02/19 10:08:04;;;;;;;11.00;1.48;;;;;;;5.04;67.80;99327.97;5009348;28;20073;-81
2022/02/19 10:10:32;;;;;;;8.82;1.80;;;;;;;5.02;67.31;99310.25;5008312;28;20060;-81
2022/02/19 10:13:00;;;;;;;5.93;1.20;;;;;;;5.27;67.60;99330.34;5010200;28;20061;-82
2022/02/19 10:15:40;;;;;;;9.70;1.20;;;;;;;5.16;67.96;99323.25;5009386;28;20474;-80
2022/02/19 10:18:27;;;;;;;7.72;1.63;;;;;;;5.19;66.56;99330.19;5009341;28;20403;-80
2022/02/19 10:21:09;;;;;;;5.93;1.50;;;;;;;5.29;66.88;99329.16;5012190;28;20054;-79
2022/02/19 10:23:39;;;;;;;6.03;1.83;;;;;;;5.31;64.56;99323.63;5010171;28;20057;-79
2022/02/19 10:26:05;;;;;;;;;;;;;;;5.36;64.45;99331.28;5005626;28;20089;-82
2022/02/19 10:28:32;;;;;;;6.30;1.08;;;;;;;5.27;64.13;99323.09;5010051;28;20292;-80
2022/02/19 10:31:17;;;;;;;4.65;1.45;;;;;;;5.43;64.30;99335.09;5002065;28;20506;-80
2022/02/19 10:33:45;;;;;;;6.78;0.98;;;;;;;5.39;62.94;99312.97;5008186;28;20504;-80
2022/02/19 10:36:18;;;;;;;4.90;1.35;;;;;;;5.45;63.18;99319.59;5008523;28;20056;-79
2022/02/19 10:38:58;;;;;;;1.88;0.90;;;;;;;5.63;63.27;99333.16;4991678;28;20146;-80
2022/02/19 10:41:36;;;;;;;7.32;1.20;;;;;;;5.63;61.75;99325.94;5004288;28;20046;-80
2022/02/19 10:44:25;;;;;;;10.57;1.80;;;;;;;5.71;62.01;99345.91;5006668;28;20517;-79
2022/02/19 10:46:53;;;;;;;11.20;1.02;;;;;;;5.73;61.46;99347.44;5009166;28;20056;-80
2022/02/19 10:49:23;;;;;;;6.43;1.48;;;;;;;5.72;60.47;99344.91;5010048;28;20112;-81
2022/02/19 10:51:51;;;;;;;10.27;1.48;;;;;;;5.77;60.77;99350.72;5011215;28;20049;-80
2022/02/19 10:54:21;;;;;;;7.25;1.40;;;;;;;5.80;61.08;99347.72;5006377;28;20050;-80
2022/02/19 10:56:47;;;;;;;4.50;1.27;;;;;;;5.80;60.41;99345.84;5003279;28;20242;-80
2022/02/19 10:59:16;;;;;;;5.68;1.13;;;;;;;5.96;59.35;99355.13;5007477;28;20062;-80
2022/02/19 11:01:46;;;;;;;5.07;1.20;;;;;;;5.96;60.45;99336.25;5013012;28;20038;-80
2022/02/19 11:04:15;;;;;;;6.78;1.52;;;;;;;6.09;59.79;99346.72;5009629;28;20049;-81
2022/02/19 11:06:46;;;;;;;5.15;1.50;;;;;;;6.06;59.01;99345.16;5008079;28;20128;-80
2022/02/19 11:09:14;;;;;;;9.02;1.17;;;;;;;6.11;59.40;99334.78;5003870;28;20045;-80
2022/02/19 11:11:42;;;;;;;4.25;1.00;;;;;;;6.17;58.23;99346.81;5002463;28;20061;-81
2022/02/19 11:14:10;;;;;;;4.85;1.13;;;;;;;5.97;59.23;99341.53;5004476;28;20052;-82
2022/02/19 11:16:38;;;;;;;5.60;2.15;;;;;;;6.13;60.21;99342.72;5009040;28;20066;-81
2022/02/19 11:19:06;;;;;;;5.53;0.75;;;;;;;6.25;61.80;99349.59;5008577;28;20054;-80
2022/02/19 11:21:35;;;;;;;7.25;1.67;;;;;;;6.35;59.61;99338.72;5008002;28;20137;-81
2022/02/19 11:24:05;;;;;;;5.90;0.90;;;;;;;6.35;58.66;99333.31;5009639;28;20056;-80
2022/02/19 11:26:32;;;;;;;4.68;1.20;;;;;;;6.40;59.84;99346.38;5008717;28;20073;-80
2022/02/19 11:29:01;;;;;;;4.38;2.17;;;;;;;6.33;59.86;99338.88;5009412;28;20052;-81
2022/02/19 11:31:30;;;;;;;4.55;1.08;;;;;;;6.41;60.72;99338.09;5001261;28;20129;-80
2022/02/19 11:34:02;;;;;;;5.38;1.23;;;;;;;6.41;58.37;99326.47;5006532;28;20452;-80
2022/02/19 11:36:30;;;;;;;5.25;1.10;;;;;;;6.43;58.85;99321.75;4998764;28;20050;-80
2022/02/19 11:38:57;;;;;;;9.38;1.15;;;;;;;6.38;59.13;99336.59;5010870;28;20079;-80
2022/02/19 11:41:40;;;;;;;9.48;1.50;;;;;;;6.46;59.38;99324.13;5008270;28;20150;-82
2022/02/19 11:44:28;;;;;;;8.73;1.35;;;;;;;6.55;57.37;99325.94;5006945;28;20124;-80
2022/02/19 11:46:56;;;;;;;10.52;1.88;;;;;;;6.61;55.78;99317.22;5010815;28;20053;-80
2022/02/19 11:49:24;;;;;;;4.20;1.23;;;;;;;6.71;57.72;99311.69;5008721;28;20054;-81
2022/02/19 11:52:16;;;;;;;4.00;1.15;;;;;;;6.82;55.41;99324.09;5007729;28;20123;-81
2022/02/19 11:54:43;;;;;;;5.18;1.30;;;;;;;6.96;56.20;99314.59;5005278;28;20045;-80